Time;durP1;ratioP1;P1;durP2;ratioP2;P2;SDS_P1;SDS_P2;PMS_P1;PMS_P2;Temp;Humidity;BMP_temperature;BMP_pressure;BME280_temperature;BME280_humidity;BME280_pressure;Samples;Min_cycle;Max_cycle;Signal;HPM_P1;HPM_P2
2023/08/14 00:01:21;;;;;;;3.65;2.20;;;19.40;99.90;;;;;;5035082;28;20197;-66
2023/08/14 00:03:47;;;;;;;3.60;2.20;;;19.40;99.90;;;;;;5017834;28;20178;-65
2023/08/14 00:06:12;;;;;;;2.70;2.08;;;19.40;99.90;;;;;;5036892;28;20178;-65
2023/08/14 00:08:38;;;;;;;2.70;1.70;;;19.30;99.90;;;;;;5034253;28;20233;-66
2023/08/14 00:11:03;;;;;;;3.33;1.80;;;19.30;99.90;;;;;;5022957;28;20209;-66
2023/08/14 00:13:29;;;;;;;4.07;1.85;;;19.30;99.90;;;;;;5019446;28;20223;-65
2023/08/14 00:15:55;;;;;;;4.03;2.13;;;19.30;99.90;;;;;;5025886;28;20187;-65
2023/08/14 00:18:20;;;;;;;2.30;1.88;;;19.30;99.90;;;;;;5027791;28;20198;-66
2023/08/14 00:20:48;;;;;;;4.93;2.17;;;19.30;99.90;;;;;;5036798;28;20198;-65
2023/08/14 00:23:14;;;;;;;2.83;1.92;;;19.30;99.90;;;;;;5036559;28;20231;-65
2023/08/14 00:25:40;;;;;;;3.10;1.80;;;19.30;99.90;;;;;;5044558;28;20174;-65
2023/08/14 00:28:08;;;;;;;3.35;2.15;;;19.20;99.90;;;;;;5050247;28;20183;-66
2023/08/14 00:30:36;;;;;;;3.95;2.30;;;19.20;99.90;;;;;;5036546;28;20170;-65
2023/08/14 00:33:04;;;;;;;2.90;2.03;;;19.10;99.90;;;;;;5037049;28;20171;-66
2023/08/14 00:35:31;;;;;;;4.15;2.20;;;19.10;99.90;;;;;;5058115;28;20217;-65
2023/08/14 00:37:59;;;;;;;4.30;2.20;;;19.00;99.90;;;;;;5035763;28;20244;-65
2023/08/14 00:40:25;;;;;;;5.47;2.17;;;19.00;99.90;;;;;;5052843;28;20205;-65
2023/08/14 00:42:50;;;;;;;3.53;1.90;;;19.00;99.90;;;;;;5036199;28;20236;-65
2023/08/14 00:45:18;;;;;;;3.10;2.13;;;18.90;99.90;;;;;;5034685;28;20224;-65
2023/08/14 00:47:45;;;;;;;4.13;1.92;;;18.90;99.90;;;;;;5034966;28;20275;-65
2023/08/14 00:50:11;;;;;;;3.85;1.88;;;18.90;99.90;;;;;;5046780;28;20213;-65
2023/08/14 00:52:44;;;;;;;3.25;1.80;;;18.90;99.90;;;;;;5035999;28;20189;-65
2023/08/14 00:55:13;;;;;;;3.08;1.70;;;18.80;99.90;;;;;;5035180;28;20183;-65
2023/08/14 00:57:39;;;;;;;3.30;1.90;;;18.90;99.90;;;;;;5035420;28;20166;-65
2023/08/14 01:00:11;;;;;;;3.58;2.00;;;18.80;99.90;;;;;;5035216;28;20198;-66
2023/08/14 01:02:37;;;;;;;1.75;1.58;;;18.80;99.90;;;;;;5035451;28;20174;-65
2023/08/14 01:05:08;;;;;;;3.00;1.80;;;18.80;99.90;;;;;;5035605;28;20208;-65
2023/08/14 01:07:33;;;;;;;3.00;1.60;;;18.80;99.90;;;;;;5031797;28;20232;-65
2023/08/14 01:10:01;;;;;;;2.00;1.55;;;18.80;99.90;;;;;;5052231;28;20272;-65
2023/08/14 01:12:29;;;;;;;2.55;1.50;;;18.70;99.90;;;;;;5035101;28;20189;-65
2023/08/14 01:15:02;;;;;;;4.20;1.90;;;18.70;99.90;;;;;;5048090;28;20210;-65
2023/08/14 01:17:33;;;;;;;2.92;1.90;;;18.70;99.90;;;;;;5036181;28;20257;-65
2023/08/14 01:20:04;;;;;;;2.63;1.67;;;18.60;99.90;;;;;;5049610;28;20186;-65
2023/08/14 01:22:54;;;;;;;2.95;1.75;;;18.60;99.90;;;;;;5034866;28;20202;-65
2023/08/14 01:25:23;;;;;;;2.83;1.70;;;18.60;99.90;;;;;;5032407;28;20185;-66
2023/08/14 01:27:49;;;;;;;2.75;1.60;;;18.60;99.90;;;;;;5051990;28;20272;-66
2023/08/14 01:30:17;;;;;;;1.80;1.30;;;18.60;99.90;;;;;;5036139;28;20212;-65
2023/08/14 01:32:45;;;;;;;2.95;1.60;;;18.50;99.90;;;;;;5036570;28;20170;-66
2023/08/14 01:35:15;;;;;;;2.80;1.55;;;18.50;99.90;;;;;;5035906;28;20174;-65
2023/08/14 01:38:23;;;;;;;2.20;1.80;;;18.50;99.90;;;;;;5036267;28;20277;-65
2023/08/14 01:41:03;;;;;;;3.28;1.60;;;18.50;99.90;;;;;;5006903;28;20217;-65
2023/08/14 01:43:38;;;;;;;2.33;1.50;;;18.50;99.90;;;;;;5009141;28;20195;-65
2023/08/14 01:46:06;;;;;;;2.85;1.30;;;18.40;99.90;;;;;;5024950;28;20194;-65
2023/08/14 01:48:34;;;;;;;1.95;1.38;;;18.40;99.90;;;;;;5026767;28;20276;-65
2023/08/14 01:51:01;;;;;;;2.35;1.40;;;18.30;99.90;;;;;;5053951;28;20174;-65
2023/08/14 01:53:27;;;;;;;3.75;1.60;;;18.30;99.90;;;;;;5035697;28;20182;-65
2023/08/14 01:55:55;;;;;;;4.65;1.45;;;18.30;99.90;;;;;;5050922;28;20197;-65
2023/08/14 01:58:21;;;;;;;2.08;1.33;;;18.30;99.90;;;;;;5033496;28;20210;-65
2023/08/14 02:00:47;;;;;;;2.05;1.50;;;18.30;99.90;;;;;;5035271;28;20308;-65
2023/08/14 02:03:12;;;;;;;2.20;1.70;;;18.30;99.90;;;;;;5051768;28;20241;-66
2023/08/14 02:05:38;;;;;;;3.40;1.55;;;18.30;99.90;;;;;;5036899;28;20177;-65
2023/08/14 02:08:04;;;;;;;3.72;1.63;;;18.30;99.90;;;;;;5034764;28;20178;-65
2023/08/14 02:10:30;;;;;;;2.65;1.65;;;18.20;99.90;;;;;;5032918;28;20210;-64
2023/08/14 02:12:55;;;;;;;2.55;1.40;;;18.20;99.90;;;;;;5027636;28;20220;-65
2023/08/14 02:15:23;;;;;;;2.65;1.45;;;18.20;99.90;;;;;;5035185;28;20185;-65
2023/08/14 02:17:48;;;;;;;2.65;1.40;;;18.10;99.90;;;;;;5034172;28;20174;-65
2023/08/14 02:20:16;;;;;;;3.10;1.50;;;18.10;99.90;;;;;;5051165;28;20262;-65
2023/08/14 02:22:47;;;;;;;3.00;1.90;;;18.10;99.90;;;;;;5033854;28;20194;-66
2023/08/14 02:25:15;;;;;;;2.35;1.42;;;18.00;99.90;;;;;;5034269;28;20185;-65
2023/08/14 02:27:45;;;;;;;4.70;1.50;;;18.00;99.90;;;;;;5030772;28;20185;-64
2023/08/14 02:30:11;;;;;;;3.05;1.75;;;18.00;99.90;;;;;;5036496;28;20208;-66
2023/08/14 02:32:39;;;;;;;4.22;1.50;;;17.90;99.90;;;;;;5032265;28;20212;-66
2023/08/14 02:35:10;;;;;;;1.90;1.42;;;17.90;99.90;;;;;;5051895;28;20192;-65
2023/08/14 02:37:38;;;;;;;3.45;1.75;;;17.90;99.90;;;;;;5034527;28;20223;-65
2023/08/14 02:40:07;;;;;;;4.05;1.42;;;17.90;99.90;;;;;;5034438;28;20174;-65
2023/08/14 02:42:32;;;;;;;2.00;1.35;;;17.90;99.90;;;;;;5041468;28;20178;-66
2023/08/14 02:45:00;;;;;;;3.25;1.45;;;17.90;99.90;;;;;;5034390;28;20170;-66
2023/08/14 02:47:28;;;;;;;2.38;1.50;;;17.90;99.90;;;;;;5032894;28;20194;-65
2023/08/14 02:49:58;;;;;;;2.20;1.50;;;17.80;99.90;;;;;;5034249;28;20190;-66
2023/08/14 02:52:31;;;;;;;3.03;1.38;;;17.90;99.90;;;;;;5036115;28;20178;-65
2023/08/14 02:54:57;;;;;;;2.67;1.40;;;17.90;99.90;;;;;;5033794;28;20293;-65
2023/08/14 02:57:22;;;;;;;2.45;1.67;;;17.80;99.90;;;;;;5033577;28;20209;-65
2023/08/14 02:59:48;;;;;;;2.22;1.40;;;17.90;99.90;;;;;;5033669;28;20184;-66
2023/08/14 03:02:16;;;;;;;3.13;1.58;;;17.80;99.90;;;;;;5044917;28;20232;-75
2023/08/14 03:04:44;;;;;;;2.97;1.40;;;17.80;99.90;;;;;;5030485;28;20259;-76
2023/08/14 03:07:09;;;;;;;3.28;1.50;;;17.80;99.90;;;;;;5028123;28;20189;-75
2023/08/14 03:09:35;;;;;;;2.58;1.60;;;17.80;99.90;;;;;;5032686;28;20201;-74
2023/08/14 03:12:01;;;;;;;3.72;1.50;;;17.80;99.90;;;;;;5033868;28;20204;-75
2023/08/14 03:14:26;;;;;;;4.88;1.50;;;17.80;99.90;;;;;;5033980;28;20235;-73
2023/08/14 03:16:54;;;;;;;2.05;1.45;;;17.70;99.90;;;;;;5033979;28;20206;-75
2023/08/14 03:19:22;;;;;;;2.20;1.20;;;17.70;99.90;;;;;;5029209;28;20448;-75
2023/08/14 03:21:51;;;;;;;2.88;1.40;;;17.70;99.90;;;;;;5033499;28;20271;-72
2023/08/14 03:24:19;;;;;;;2.28;1.52;;;17.70;99.90;;;;;;5033002;28;20205;-74
2023/08/14 03:26:45;;;;;;;3.20;1.50;;;17.60;99.90;;;;;;5034026;28;20176;-74
2023/08/14 03:29:11;;;;;;;2.17;1.33;;;17.60;99.90;;;;;;5021429;28;20174;-73
2023/08/14 03:31:37;;;;;;;10.52;6.97;;;17.60;99.90;;;;;;5032951;28;20197;-73
2023/08/14 03:34:02;;;;;;;8.60;6.10;;;17.60;99.90;;;;;;5036079;28;20182;-72
2023/08/14 03:36:28;;;;;;;5.78;4.78;;;17.60;99.90;;;;;;5035962;28;20185;-73
2023/08/14 03:38:54;;;;;;;4.72;4.18;;;17.50;99.90;;;;;;5040407;28;20197;-75
2023/08/14 03:41:19;;;;;;;7.70;4.03;;;17.50;99.90;;;;;;5063130;28;20284;-74
2023/08/14 03:43:45;;;;;;;6.28;4.18;;;17.40;99.90;;;;;;5039482;28;20185;-74
2023/08/14 03:46:16;;;;;;;6.10;4.63;;;17.50;99.90;;;;;;5053444;28;20256;-72
2023/08/14 03:48:46;;;;;;;4.60;3.30;;;17.40;99.90;;;;;;5037507;28;20276;-75
2023/08/14 03:51:12;;;;;;;3.85;2.72;;;17.50;99.90;;;;;;5037131;28;20193;-73
2023/08/14 03:53:37;;;;;;;4.20;2.58;;;17.40;99.90;;;;;;5035429;28;20198;-74
2023/08/14 03:56:05;;;;;;;3.22;2.40;;;17.50;99.90;;;;;;5054331;28;20178;-75
2023/08/14 03:58:33;;;;;;;14.15;9.85;;;17.50;99.90;;;;;;5039326;28;20188;-71
2023/08/14 04:00:59;;;;;;;18.98;14.43;;;17.40;99.90;;;;;;5035236;28;20210;-75
2023/08/14 04:03:25;;;;;;;10.07;7.90;;;17.40;99.90;;;;;;5054333;28;20202;-75
2023/08/14 04:05:56;;;;;;;6.60;5.20;;;17.40;99.90;;;;;;5035956;28;20205;-74
2023/08/14 04:08:23;;;;;;;5.82;4.00;;;17.40;99.90;;;;;;5036966;28;20212;-75
2023/08/14 04:10:57;;;;;;;4.45;3.20;;;17.40;99.90;;;;;;5037551;28;20178;-76
2023/08/14 04:13:26;;;;;;;4.45;2.88;;;17.40;99.90;;;;;;5031927;28;20213;-75
2023/08/14 04:16:03;;;;;;;3.05;2.00;;;17.40;99.90;;;;;;5036811;28;20181;-74
2023/08/14 04:18:29;;;;;;;4.25;2.20;;;17.30;99.90;;;;;;5028748;28;20265;-75
2023/08/14 04:20:55;;;;;;;3.03;1.88;;;17.40;99.90;;;;;;5047586;28;20248;-75
2023/08/14 04:23:24;;;;;;;3.13;1.85;;;17.40;99.90;;;;;;5034998;28;20236;-77
2023/08/14 04:25:50;;;;;;;27.40;19.23;;;17.40;99.90;;;;;;5025302;28;20201;-79
2023/08/14 04:28:16;;;;;;;9.48;6.97;;;17.50;99.90;;;;;;5036960;28;20198;-79
2023/08/14 04:30:42;;;;;;;7.97;4.97;;;17.40;99.90;;;;;;5038815;28;20193;-77
2023/08/14 04:33:07;;;;;;;5.15;3.65;;;17.40;99.90;;;;;;5037476;28;20537;-74
2023/08/14 04:35:33;;;;;;;3.75;2.60;;;17.40;99.90;;;;;;5035507;28;20225;-77
2023/08/14 04:38:01;;;;;;;4.05;2.72;;;17.30;99.90;;;;;;5032798;28;20186;-77
2023/08/14 04:40:27;;;;;;;5.47;3.17;;;17.30;99.90;;;;;;5043117;28;20469;-78
2023/08/14 04:42:55;;;;;;;62.22;42.38;;;17.30;99.90;;;;;;5037216;28;20488;-77
2023/08/14 04:45:21;;;;;;;13.43;11.27;;;17.20;99.90;;;;;;5035365;28;20204;-78
2023/08/14 04:47:46;;;;;;;9.10;7.30;;;17.20;99.90;;;;;;5049502;28;20210;-79
2023/08/14 04:50:12;;;;;;;6.82;5.82;;;17.20;99.90;;;;;;5052978;28;20169;-79
2023/08/14 04:52:38;;;;;;;4.68;3.70;;;17.20;99.90;;;;;;5036877;28;20177;-80
2023/08/14 04:55:05;;;;;;;5.25;3.15;;;17.20;99.90;;;;;;5053126;28;20167;-79
2023/08/14 04:57:33;;;;;;;3.70;2.22;;;17.20;99.90;;;;;;5035637;28;20253;-74
2023/08/14 04:59:58;;;;;;;3.75;2.20;;;17.20;99.90;;;;;;5022947;28;20187;-77
2023/08/14 05:02:28;;;;;;;3.03;2.15;;;17.20;99.90;;;;;;5017284;28;20301;-72
2023/08/14 05:04:56;;;;;;;3.33;1.90;;;17.20;99.90;;;;;;5031527;28;20368;-72
2023/08/14 05:07:24;;;;;;;2.80;1.60;;;17.20;99.90;;;;;;5032022;28;20185;-73
2023/08/14 05:09:52;;;;;;;2.67;1.45;;;17.20;99.90;;;;;;5046380;28;20193;-73
2023/08/14 05:12:20;;;;;;;3.03;1.55;;;17.30;99.90;;;;;;5035633;28;20276;-73
2023/08/14 05:14:48;;;;;;;2.58;1.75;;;17.30;99.90;;;;;;5052464;28;20290;-74
2023/08/14 05:17:13;;;;;;;2.60;1.70;;;17.30;99.90;;;;;;5052674;28;20209;-74
2023/08/14 05:19:39;;;;;;;2.45;1.75;;;17.30;99.90;;;;;;5034692;28;20178;-73
2023/08/14 05:22:05;;;;;;;2.97;1.80;;;17.30;99.90;;;;;;5035813;28;20220;-73
2023/08/14 05:24:30;;;;;;;2.88;1.75;;;17.40;99.90;;;;;;5051601;28;20204;-73
2023/08/14 05:26:56;;;;;;;4.72;2.72;;;17.40;99.90;;;;;;5035471;28;20193;-71
2023/08/14 05:29:21;;;;;;;3.42;2.28;;;17.40;99.90;;;;;;5051930;28;20178;-74
2023/08/14 05:31:49;;;;;;;3.42;1.90;;;17.50;99.90;;;;;;5034941;28;20217;-71
2023/08/14 05:34:17;;;;;;;2.83;1.67;;;17.50;99.90;;;;;;5035618;28;20174;-76
2023/08/14 05:36:47;;;;;;;3.95;2.10;;;17.60;99.90;;;;;;5035097;28;20185;-74
2023/08/14 05:39:18;;;;;;;6.25;1.65;;;17.60;99.90;;;;;;5034681;28;20194;-73
2023/08/14 05:41:44;;;;;;;5.85;2.03;;;17.70;99.90;;;;;;5035143;28;20228;-73
2023/08/14 05:44:09;;;;;;;4.25;1.92;;;17.70;99.90;;;;;;5052446;28;20186;-74
2023/08/14 05:46:35;;;;;;;3.40;1.92;;;17.80;99.90;;;;;;5051365;28;20217;-74
2023/08/14 05:49:01;;;;;;;3.65;1.90;;;17.90;99.90;;;;;;5035873;28;20258;-73
2023/08/14 05:51:26;;;;;;;3.30;1.90;;;17.90;99.90;;;;;;5034947;28;20196;-74
2023/08/14 05:53:52;;;;;;;3.22;1.65;;;18.00;99.90;;;;;;5047225;28;20206;-75
2023/08/14 05:56:17;;;;;;;2.78;1.80;;;18.10;99.90;;;;;;5035077;28;20178;-74
2023/08/14 05:58:43;;;;;;;2.65;1.50;;;18.10;99.90;;;;;;5034840;28;20181;-75
2023/08/14 06:01:14;;;;;;;4.13;1.70;;;18.30;99.90;;;;;;5034583;28;20206;-74
2023/08/14 06:03:40;;;;;;;4.70;1.88;;;18.30;99.90;;;;;;5034185;28;20178;-75
2023/08/14 06:06:08;;;;;;;3.33;1.50;;;18.40;99.90;;;;;;5034817;28;20180;-74
2023/08/14 06:08:36;;;;;;;3.28;1.70;;;18.40;99.90;;;;;;5047502;28;20191;-73
2023/08/14 06:11:04;;;;;;;4.03;1.80;;;18.50;99.90;;;;;;5031221;28;20197;-73
2023/08/14 06:13:32;;;;;;;4.35;1.88;;;18.60;99.90;;;;;;5031315;28;20182;-74
2023/08/14 06:16:00;;;;;;;3.22;1.80;;;18.70;99.90;;;;;;5034400;28;20201;-74
2023/08/14 06:18:28;;;;;;;2.97;1.70;;;18.70;99.90;;;;;;5049407;28;20320;-73
2023/08/14 06:20:54;;;;;;;3.08;1.75;;;18.80;99.90;;;;;;5051485;28;20198;-74
2023/08/14 06:23:20;;;;;;;2.50;1.80;;;18.80;99.90;;;;;;5033736;28;20201;-75
2023/08/14 06:25:47;;;;;;;3.72;1.75;;;18.90;99.90;;;;;;5033973;28;20201;-74
2023/08/14 06:28:15;;;;;;;2.97;1.70;;;19.00;99.90;;;;;;5034812;28;20177;-75
2023/08/14 06:30:44;;;;;;;4.25;2.10;;;19.00;99.90;;;;;;5050675;28;20186;-74
2023/08/14 06:33:09;;;;;;;4.05;1.63;;;19.10;99.90;;;;;;5029786;28;20240;-74
2023/08/14 06:35:35;;;;;;;2.95;1.70;;;19.20;99.90;;;;;;5022058;28;20383;-73
2023/08/14 06:38:00;;;;;;;3.53;1.80;;;19.20;99.90;;;;;;5017200;28;20192;-74
2023/08/14 06:40:28;;;;;;;4.75;1.80;;;19.30;99.90;;;;;;5034750;28;20178;-71
2023/08/14 06:42:59;;;;;;;3.13;1.80;;;19.40;99.90;;;;;;5027024;28;20179;-74
2023/08/14 06:45:24;;;;;;;3.10;1.60;;;19.40;99.90;;;;;;5034975;28;20179;-74
2023/08/14 06:47:52;;;;;;;2.63;1.70;;;19.40;99.90;;;;;;5032632;28;20312;-74
2023/08/14 06:50:18;;;;;;;2.65;1.70;;;19.50;99.90;;;;;;5050612;28;20227;-74
2023/08/14 06:52:46;;;;;;;3.17;1.98;;;19.50;99.90;;;;;;5034382;28;20269;-74
2023/08/14 06:55:11;;;;;;;3.67;1.63;;;19.60;99.90;;;;;;5050732;28;20177;-71
2023/08/14 06:57:37;;;;;;;4.90;1.85;;;19.70;99.90;;;;;;5033775;28;20166;-75
2023/08/14 07:00:12;;;;;;;4.15;2.13;;;19.70;99.90;;;;;;5033826;28;20178;-73
2023/08/14 07:02:38;;;;;;;2.85;2.10;;;19.80;99.90;;;;;;5020882;28;20197;-74
2023/08/14 07:05:08;;;;;;;2.53;1.58;;;19.90;99.90;;;;;;5034126;28;20200;-73
2023/08/14 07:07:34;;;;;;;3.10;1.95;;;20.10;99.90;;;;;;5049560;28;20209;-75
2023/08/14 07:09:59;;;;;;;2.35;1.63;;;20.20;99.90;;;;;;5050364;28;20204;-74
2023/08/14 07:12:27;;;;;;;3.03;1.50;;;20.40;99.90;;;;;;5034003;28;20212;-74
2023/08/14 07:14:53;;;;;;;3.65;1.73;;;20.50;99.90;;;;;;5050507;28;20205;-73
2023/08/14 07:17:20;;;;;;;2.95;1.88;;;20.70;99.90;;;;;;5033764;28;20226;-74
2023/08/14 07:19:49;;;;;;;2.55;1.50;;;20.80;99.90;;;;;;5033782;28;20194;-73
2023/08/14 07:22:14;;;;;;;2.78;1.60;;;20.90;99.90;;;;;;5029392;28;20213;-73
2023/08/14 07:24:44;;;;;;;3.47;1.70;;;21.00;99.90;;;;;;5033571;28;20178;-74
2023/08/14 07:27:10;;;;;;;3.15;1.60;;;21.10;99.90;;;;;;5050453;28;20224;-74
2023/08/14 07:29:36;;;;;;;2.15;1.50;;;21.20;99.90;;;;;;5029606;28;20194;-74
2023/08/14 07:32:01;;;;;;;3.13;1.80;;;21.20;99.90;;;;;;5033203;28;20178;-74
2023/08/14 07:34:27;;;;;;;4.45;1.73;;;21.20;99.90;;;;;;5030534;28;20265;-72
2023/08/14 07:36:53;;;;;;;2.60;1.60;;;21.20;99.90;;;;;;5029489;28;20202;-72
2023/08/14 07:39:21;;;;;;;4.63;2.05;;;21.30;99.90;;;;;;5033510;28;20182;-68
2023/08/14 07:41:46;;;;;;;2.88;1.85;;;21.30;99.90;;;;;;5021850;28;20236;-73
2023/08/14 07:44:12;;;;;;;4.05;2.00;;;21.30;99.90;;;;;;5032678;28;20281;-75
2023/08/14 07:46:38;;;;;;;1.90;1.70;;;21.40;99.90;;;;;;5033092;28;20194;-74
2023/08/14 07:49:08;;;;;;;2.83;1.65;;;21.40;99.90;;;;;;5032688;28;20212;-74
2023/08/14 07:51:36;;;;;;;2.95;1.70;;;21.50;99.90;;;;;;5033185;28;20264;-72
2023/08/14 07:54:04;;;;;;;3.28;1.65;;;21.50;99.90;;;;;;5030094;28;20182;-73
2023/08/14 07:56:30;;;;;;;3.95;1.77;;;21.60;99.90;;;;;;5034463;28;20190;-73
2023/08/14 07:58:55;;;;;;;2.78;1.42;;;21.60;99.90;;;;;;5016659;28;20197;-73
2023/08/14 08:01:21;;;;;;;2.83;1.77;;;21.60;99.90;;;;;;5046575;28;20293;-74
2023/08/14 08:03:49;;;;;;;2.78;1.90;;;21.60;99.90;;;;;;5032792;28;20182;-73
2023/08/14 08:06:14;;;;;;;2.78;1.63;;;21.60;99.90;;;;;;5030394;28;20502;-74
2023/08/14 08:08:40;;;;;;;3.03;1.58;;;21.60;99.90;;;;;;5018080;28;20206;-74
2023/08/14 08:11:05;;;;;;;3.38;1.80;;;21.60;99.90;;;;;;5050172;28;20268;-74
2023/08/14 08:13:31;;;;;;;4.53;1.65;;;21.60;99.90;;;;;;5044716;28;20178;-74
2023/08/14 08:15:59;;;;;;;3.78;1.50;;;21.70;99.90;;;;;;5025532;28;20185;-73
2023/08/14 08:18:24;;;;;;;4.00;1.70;;;21.70;99.90;;;;;;5051272;28;20205;-73
2023/08/14 08:20:52;;;;;;;4.07;1.88;;;21.70;99.90;;;;;;5055869;28;20202;-74
2023/08/14 08:23:20;;;;;;;2.67;1.60;;;21.70;99.90;;;;;;5036650;28;20198;-74
2023/08/14 08:25:46;;;;;;;2.97;1.88;;;21.70;99.90;;;;;;5052805;28;20292;-74
2023/08/14 08:28:11;;;;;;;3.38;1.83;;;21.70;99.90;;;;;;5037419;28;20221;-72
2023/08/14 08:30:37;;;;;;;3.28;1.70;;;21.70;99.90;;;;;;5036709;28;20208;-74
2023/08/14 08:33:03;;;;;;;3.13;1.70;;;21.80;99.90;;;;;;5037122;28;20204;-74
2023/08/14 08:35:29;;;;;;;4.13;1.30;;;21.80;99.90;;;;;;5036788;28;20177;-75
2023/08/14 08:37:55;;;;;;;3.38;1.58;;;21.80;99.90;;;;;;5036534;28;20190;-74
2023/08/14 08:40:22;;;;;;;1.98;1.33;;;21.90;99.90;;;;;;5037151;28;20202;-74
2023/08/14 08:42:53;;;;;;;2.38;1.52;;;21.90;99.90;;;;;;5052783;28;20174;-72
2023/08/14 08:45:31;;;;;;;3.53;1.60;;;22.00;99.90;;;;;;5036704;28;20269;-73
2023/08/14 08:48:05;;;;;;;2.42;1.50;;;22.10;99.90;;;;;;5049525;28;20278;-74
2023/08/14 08:50:31;;;;;;;2.22;1.50;;;22.10;99.90;;;;;;5036416;28;20200;-71
2023/08/14 08:52:59;;;;;;;2.58;1.60;;;22.20;99.90;;;;;;5036504;28;20181;-74
2023/08/14 08:55:30;;;;;;;3.25;1.50;;;22.30;99.90;;;;;;5036201;28;20197;-73
2023/08/14 08:57:57;;;;;;;3.25;1.60;;;22.50;99.90;;;;;;5033508;28;20206;-75
2023/08/14 09:00:24;;;;;;;3.05;1.60;;;22.60;99.90;;;;;;5050129;28;20234;-75
2023/08/14 09:02:54;;;;;;;4.40;1.90;;;22.80;99.90;;;;;;5051009;28;20217;-73
2023/08/14 09:05:20;;;;;;;2.97;1.60;;;23.00;99.90;;;;;;5026966;28;20266;-75
2023/08/14 09:07:46;;;;;;;3.28;1.77;;;23.10;99.90;;;;;;5049592;28;20217;-73
2023/08/14 09:10:12;;;;;;;1.88;1.40;;;23.30;99.90;;;;;;5036419;28;20170;-75
2023/08/14 09:12:40;;;;;;;3.90;1.92;;;23.40;99.90;;;;;;5036422;28;20192;-74
2023/08/14 09:15:11;;;;;;;2.28;1.73;;;23.60;99.90;;;;;;5036469;28;20244;-75
2023/08/14 09:17:37;;;;;;;3.53;1.67;;;23.70;99.90;;;;;;5036615;28;20186;-73
2023/08/14 09:20:04;;;;;;;4.05;1.80;;;23.90;99.90;;;;;;5052920;28;20188;-75
2023/08/14 09:22:30;;;;;;;3.60;1.60;;;24.00;99.90;;;;;;5035487;28;20220;-74
2023/08/14 09:24:59;;;;;;;3.05;1.77;;;24.20;99.90;;;;;;5050154;28;20175;-74
2023/08/14 09:27:26;;;;;;;4.00;1.60;;;24.30;99.90;;;;;;5052344;28;20404;-74
2023/08/14 09:29:53;;;;;;;3.75;1.83;;;24.40;99.90;;;;;;5048798;28;20236;-75
2023/08/14 09:32:24;;;;;;;3.58;1.70;;;24.50;99.90;;;;;;5035183;28;20178;-74
2023/08/14 09:34:58;;;;;;;3.55;1.70;;;24.60;99.90;;;;;;5032011;28;20205;-75
2023/08/14 09:37:24;;;;;;;2.47;1.58;;;24.70;99.90;;;;;;5035216;28;20204;-74
2023/08/14 09:40:13;;;;;;;2.85;1.40;;;24.90;99.90;;;;;;5035181;28;20210;-73
2023/08/14 09:42:39;;;;;;;2.97;1.60;;;25.00;99.90;;;;;;5022726;28;20268;-73
2023/08/14 09:45:07;;;;;;;3.03;1.50;;;25.20;99.90;;;;;;5043317;28;20179;-75
2023/08/14 09:47:34;;;;;;;2.78;1.77;;;25.20;99.90;;;;;;5033838;28;20186;-75
2023/08/14 09:50:00;;;;;;;4.20;1.80;;;25.30;99.90;;;;;;5051809;28;20193;-74
2023/08/14 09:52:26;;;;;;;2.83;1.50;;;25.40;99.90;;;;;;5035556;28;20178;-75
2023/08/14 09:54:53;;;;;;;1.88;1.45;;;25.50;99.90;;;;;;5035100;28;20216;-74
2023/08/14 09:57:22;;;;;;;2.75;1.50;;;25.60;99.90;;;;;;5051353;28;20201;-75
2023/08/14 09:59:50;;;;;;;2.17;1.38;;;25.70;99.90;;;;;;5034948;28;20205;-74
2023/08/14 10:02:17;;;;;;;3.42;2.17;;;25.80;99.90;;;;;;5050329;28;20206;-72
2023/08/14 10:04:46;;;;;;;3.72;2.10;;;25.90;99.90;;;;;;5035196;28;20202;-74
2023/08/14 10:07:19;;;;;;;3.83;2.13;;;26.10;99.90;;;;;;5044719;28;20224;-75
2023/08/14 10:09:51;;;;;;;3.53;1.92;;;26.20;99.90;;;;;;5032853;28;20189;-73
2023/08/14 10:12:22;;;;;;;2.25;1.70;;;26.30;99.90;;;;;;5034865;28;20191;-74
2023/08/14 10:14:55;;;;;;;2.75;1.70;;;26.50;99.90;;;;;;5051124;28;20201;-74
2023/08/14 10:17:34;;;;;;;3.15;1.55;;;26.60;99.90;;;;;;5047568;28;20293;-75
2023/08/14 10:20:03;;;;;;;2.90;1.52;;;26.80;99.90;;;;;;5031780;28;20182;-75
2023/08/14 10:22:33;;;;;;;2.55;1.70;;;27.00;99.90;;;;;;5033707;28;20201;-74
2023/08/14 10:25:02;;;;;;;2.45;1.60;;;27.20;99.90;;;;;;5034292;28;20220;-74
2023/08/14 10:27:28;;;;;;;2.50;1.70;;;27.40;99.90;;;;;;5034693;28;20178;-74
2023/08/14 10:29:54;;;;;;;2.28;1.30;;;27.50;99.90;;;;;;5034233;28;20189;-74
2023/08/14 10:32:20;;;;;;;3.30;1.52;;;27.50;99.90;;;;;;5034690;28;20173;-75
2023/08/14 10:34:48;;;;;;;3.25;1.70;;;27.50;99.90;;;;;;5034538;28;20193;-73
2023/08/14 10:37:48;;;;;;;1.92;1.38;;;27.60;99.90;;;;;;5051314;28;20206;-75
2023/08/14 10:40:22;;;;;;;3.10;1.65;;;27.80;99.90;;;;;;5034098;28;20182;-73
2023/08/14 10:42:52;;;;;;;2.00;1.42;;;28.00;99.90;;;;;;5032446;28;20266;-76
2023/08/14 10:45:24;;;;;;;3.08;1.75;;;28.20;99.90;;;;;;5030793;28;20225;-75
2023/08/14 10:47:51;;;;;;;2.75;1.50;;;28.40;99.90;;;;;;5034344;28;20178;-76
2023/08/14 10:50:23;;;;;;;3.03;1.52;;;28.50;99.90;;;;;;5036623;28;20181;-76
2023/08/14 10:52:51;;;;;;;3.60;1.83;;;28.60;99.90;;;;;;5055299;28;20198;-74
2023/08/14 10:55:22;;;;;;;2.50;1.48;;;28.60;99.90;;;;;;5047523;28;20325;-75
2023/08/14 10:57:48;;;;;;;3.33;1.75;;;28.50;99.90;;;;;;5030625;28;20174;-71
2023/08/14 11:00:26;;;;;;;4.43;2.13;;;28.30;99.90;;;;;;5050732;28;20189;-76
2023/08/14 11:03:04;;;;;;;3.50;1.70;;;28.10;99.90;;;;;;5050098;28;20259;-74
2023/08/14 11:05:40;;;;;;;3.33;1.70;;;27.90;99.90;;;;;;5050262;28;20203;-74
2023/08/14 11:08:07;;;;;;;3.05;1.70;;;27.60;99.90;;;;;;5034099;28;20169;-74
2023/08/14 11:10:34;;;;;;;4.53;1.73;;;27.40;99.90;;;;;;5034607;28;20188;-72
2023/08/14 11:13:01;;;;;;;4.40;1.83;;;27.10;99.90;;;;;;5046809;28;20202;-73
2023/08/14 11:15:30;;;;;;;3.28;1.75;;;26.60;99.90;;;;;;5032992;28;20537;-73
2023/08/14 11:17:56;;;;;;;2.95;1.50;;;26.20;99.90;;;;;;5050547;28;20212;-73
2023/08/14 11:20:24;;;;;;;3.05;1.80;;;25.70;99.90;;;;;;5049828;28;20209;-72
2023/08/14 11:22:53;;;;;;;2.60;1.80;;;25.20;99.90;;;;;;5033549;28;20198;-70
2023/08/14 11:25:20;;;;;;;2.38;1.63;;;24.90;99.90;;;;;;5033627;28;20882;-69
2023/08/14 11:27:53;;;;;;;5.00;1.95;;;24.50;99.90;;;;;;5049940;28;20190;-73
2023/08/14 11:30:23;;;;;;;3.42;1.85;;;24.30;99.90;;;;;;5050533;28;20182;-71
2023/08/14 11:32:53;;;;;;;5.32;2.08;;;24.10;99.90;;;;;;5033555;28;20260;-73
2023/08/14 11:35:19;;;;;;;3.22;1.70;;;23.90;99.90;;;;;;5023076;28;20170;-71
2023/08/14 11:37:47;;;;;;;3.17;1.90;;;23.70;99.90;;;;;;5047271;28;20239;-72
2023/08/14 11:40:17;;;;;;;3.22;1.77;;;23.60;99.90;;;;;;5033560;28;20259;-71
2023/08/14 11:42:45;;;;;;;3.03;1.80;;;23.50;99.90;;;;;;5030222;28;20273;-72
2023/08/14 11:45:11;;;;;;;3.47;1.85;;;23.40;99.90;;;;;;5015100;28;20225;-70
2023/08/14 11:47:47;;;;;;;2.60;1.60;;;23.40;99.90;;;;;;5016848;28;20199;-74
2023/08/14 11:50:14;;;;;;;5.50;2.40;;;23.30;99.90;;;;;;5046458;28;20206;-64
2023/08/14 11:52:40;;;;;;;4.40;2.05;;;23.30;99.90;;;;;;5017916;28;20182;-65
2023/08/14 11:55:09;;;;;;;2.45;1.60;;;23.30;99.90;;;;;;5043139;28;20289;-64
2023/08/14 11:57:38;;;;;;;4.32;2.00;;;23.30;99.90;;;;;;5037111;28;20249;-65
2023/08/14 12:00:14;;;;;;;2.97;2.08;;;23.30;99.90;;;;;;5053872;28;20178;-64
2023/08/14 12:02:42;;;;;;;4.13;2.13;;;23.30;99.90;;;;;;5017750;28;20214;-65
2023/08/14 12:05:10;;;;;;;4.88;2.47;;;23.30;99.90;;;;;;5036337;28;20182;-65
2023/08/14 12:07:42;;;;;;;3.13;2.30;;;23.40;99.90;;;;;;5052877;28;20193;-65
2023/08/14 12:10:08;;;;;;;5.10;2.63;;;23.40;99.90;;;;;;5037204;28;20244;-65
2023/08/14 12:12:34;;;;;;;5.80;2.95;;;23.40;99.90;;;;;;5025591;28;20178;-67
2023/08/14 12:15:02;;;;;;;4.78;2.35;;;23.40;99.90;;;;;;5037295;28;20185;-65
2023/08/14 12:17:34;;;;;;;3.60;2.30;;;23.40;99.90;;;;;;5036692;28;20201;-65
2023/08/14 12:20:03;;;;;;;6.45;2.80;;;23.40;99.90;;;;;;5053131;28;20178;-65
2023/08/14 12:22:31;;;;;;;7.68;2.38;;;23.40;99.90;;;;;;5053105;28;20255;-65
2023/08/14 12:24:59;;;;;;;3.55;2.72;;;23.40;99.90;;;;;;5053498;28;20170;-65
2023/08/14 12:27:26;;;;;;;4.93;2.85;;;23.40;99.90;;;;;;5053603;28;20311;-65
2023/08/14 12:29:57;;;;;;;5.43;2.60;;;23.40;99.90;;;;;;5036640;28;20412;-65
2023/08/14 12:32:26;;;;;;;5.18;3.28;;;23.40;99.90;;;;;;5053695;28;20178;-65
2023/08/14 12:34:52;;;;;;;6.50;2.70;;;23.40;99.90;;;;;;5046752;28;20178;-65
2023/08/14 12:37:19;;;;;;;4.32;2.53;;;23.40;99.90;;;;;;5034372;28;20174;-65
2023/08/14 12:39:50;;;;;;;4.82;2.38;;;23.60;99.90;;;;;;5017242;28;20178;-65
2023/08/14 12:42:19;;;;;;;4.30;2.38;;;23.60;99.90;;;;;;5033884;28;20198;-65
2023/08/14 12:44:47;;;;;;;5.40;2.30;;;23.70;99.90;;;;;;5034532;28;20201;-65
2023/08/14 12:47:12;;;;;;;6.05;2.40;;;23.80;99.90;;;;;;5035083;28;20182;-65
2023/08/14 12:49:38;;;;;;;5.15;2.40;;;24.00;99.90;;;;;;5033723;28;20268;-65